Time;durP1;ratioP1;P1;durP2;ratioP2;P2;SDS_P1;SDS_P2;PMS_P1;PMS_P2;Temp;Humidity;BMP_temperature;BMP_pressure;BME280_temperature;BME280_humidity;BME280_pressure;Samples;Min_cycle;Max_cycle;Signal;HPM_P1;HPM_P2
2022/10/29 00:01:44;;;;;;;;;;;;;;;23.96;100.00;99518.69;5041944;28;19921;-48
2022/10/29 00:04:09;;;;;;;;;;;;;;;24.11;100.00;99514.03;5039665;28;19936;-48
2022/10/29 00:06:34;;;;;;;;;;;;;;;24.10;100.00;99514.13;5041165;28;19921;-48
2022/10/29 00:08:59;;;;;;;;;;;;;;;24.01;100.00;99513.06;5038848;28;19967;-48
2022/10/29 00:11:25;;;;;;;;;;;;;;;23.87;100.00;99505.44;5041738;28;20377;-48
2022/10/29 00:13:54;;;;;;;;;;;;;;;23.97;100.00;99519.53;5038761;28;20388;-48
2022/10/29 00:16:21;;;;;;;;;;;;;;;23.70;100.00;99526.00;5039062;28;19921;-47
2022/10/29 00:18:46;;;;;;;;;;;;;;;23.86;100.00;99527.47;5039229;28;19917;-48
2022/10/29 00:21:12;;;;;;;;;;;;;;;24.11;100.00;99531.63;5036805;28;20413;-50
2022/10/29 00:23:38;;;;;;;;;;;;;;;24.14;100.00;99534.00;5045682;28;20015;-47
2022/10/29 00:26:03;;;;;;;;;;;;;;;23.98;100.00;99537.00;5041867;28;20039;-49
2022/10/29 00:28:28;;;;;;;;;;;;;;;24.39;100.00;99517.88;5039338;28;19921;-48
2022/10/29 00:30:54;;;;;;;;;;;;;;;23.75;100.00;99518.59;5039769;28;19927;-49
2022/10/29 00:33:19;;;;;;;;;;;;;;;24.15;100.00;99514.59;5041780;28;19959;-50
2022/10/29 00:36:16;;;;;;;;;;;;;;;24.42;100.00;99511.53;5040056;28;19925;-48
2022/10/29 00:38:42;;;;;;;;;;;;;;;24.46;100.00;99507.69;5026048;28;19925;-48
2022/10/29 00:41:07;;;;;;;;;;;;;;;24.46;100.00;99506.88;5039696;28;19931;-48
2022/10/29 00:43:34;;;;;;;;;;;;;;;24.38;100.00;99520.63;5039329;28;19932;-48
2022/10/29 00:46:03;;;;;;;;;;;;;;;24.49;100.00;99523.25;5039698;28;19931;-47
2022/10/29 00:48:30;;;;;;;;;;;;;;;24.39;100.00;99520.53;5040619;28;19932;-50
2022/10/29 00:50:55;;;;;;;;;;;;;;;24.48;100.00;99520.78;5037543;28;19920;-48
2022/10/29 00:53:22;;;;;;;;;;;;;;;24.44;100.00;99525.41;5039193;28;19921;-48
2022/10/29 00:55:48;;;;;;;;;;;;;;;24.53;100.00;99524.69;5039799;28;19935;-50
2022/10/29 00:58:13;;;;;;;;;;;;;;;24.58;100.00;99527.78;5037710;28;19920;-49
2022/10/29 01:00:38;;;;;;;;;;;;;;;24.50;100.00;99530.22;5054523;28;19921;-48
2022/10/29 01:03:04;;;;;;;;;;;;;;;24.43;100.00;99534.28;5039481;28;19925;-51
2022/10/29 01:05:29;;;;;;;;;;;;;;;24.37;100.00;99540.03;5039007;28;19917;-48
2022/10/29 01:07:54;;;;;;;;;;;;;;;24.21;100.00;99529.91;5038232;28;19923;-48
2022/10/29 01:10:21;;;;;;;;;;;;;;;24.34;100.00;99519.22;5039065;28;20274;-48
2022/10/29 01:13:01;;;;;;;;;;;;;;;24.18;100.00;99515.19;5041087;28;19928;-47
2022/10/29 01:15:53;;;;;;;;;;;;;;;24.32;100.00;99510.63;5038947;28;19995;-48
2022/10/29 01:18:33;;;;;;;;;;;;;;;24.42;100.00;99511.53;5036577;28;19921;-48
2022/10/29 01:20:58;;;;;;;;;;;;;;;24.42;100.00;99508.91;5039711;28;20533;-48
2022/10/29 01:23:24;;;;;;;;;;;;;;;24.38;100.00;99513.59;5039379;28;20054;-51
2022/10/29 01:26:07;;;;;;;;;;;;;;;24.41;100.00;99497.53;5039447;28;19960;-49
2022/10/29 01:28:51;;;;;;;;;;;;;;;24.40;100.00;99498.53;5037227;28;20365;-48
2022/10/29 01:31:24;;;;;;;;;;;;;;;24.26;100.00;99497.94;5038394;28;19928;-49
2022/10/29 01:33:54;;;;;;;;;;;;;;;24.32;100.00;99500.09;5038569;28;19927;-47
2022/10/29 01:36:31;;;;;;;;;;;;;;;24.30;100.00;99497.56;5037848;28;19939;-47
2022/10/29 01:39:07;;;;;;;;;;;;;;;24.30;100.00;99496.75;5020904;28;20302;-49
2022/10/29 01:41:42;;;;;;;;;;;;;;;24.22;100.00;99494.72;5037258;28;19921;-48
2022/10/29 01:44:13;;;;;;;;;;;;;;;24.15;100.00;99490.91;5038371;28;19920;-50
2022/10/29 01:46:39;;;;;;;;;;;;;;;24.17;100.00;99492.47;5038723;28;19924;-49
2022/10/29 01:49:06;;;;;;;;;;;;;;;24.08;100.00;99493.19;5043626;28;19920;-47
2022/10/29 01:51:32;;;;;;;;;;;;;;;24.09;100.00;99492.25;5037856;28;19921;-48
2022/10/29 01:53:58;;;;;;;;;;;;;;;24.13;100.00;99491.06;5036505;28;19965;-51
2022/10/29 01:56:23;;;;;;;;;;;;;;;24.06;100.00;99486.41;5037551;28;19917;-50
2022/10/29 01:58:49;;;;;;;;;;;;;;;24.06;100.00;99484.59;5036464;28;20964;-48
2022/10/29 02:01:14;;;;;;;;;;;;;;;23.89;100.00;99482.50;5036130;28;19925;-50
2022/10/29 02:03:58;;;;;;;;;;;;;;;23.94;100.00;99485.59;5037064;28;19931;-48
2022/10/29 02:06:39;;;;;;;;;;;;;;;23.97;100.00;99480.06;5036818;28;19936;-49
2022/10/29 02:09:26;;;;;;;;;;;;;;;23.76;100.00;99474.72;5034586;28;19917;-48
2022/10/29 02:11:52;;;;;;;;;;;;;;;23.71;100.00;99476.88;5035226;28;20061;-47
2022/10/29 02:14:17;;;;;;;;;;;;;;;23.67;100.00;99478.88;5038270;28;20012;-48
2022/10/29 02:16:42;;;;;;;;;;;;;;;23.67;100.00;99473.63;5038559;28;20293;-48
2022/10/29 02:19:08;;;;;;;;;;;;;;;23.63;100.00;99469.59;5035998;28;20815;-49
2022/10/29 02:21:33;;;;;;;;;;;;;;;23.59;100.00;99470.78;5037193;28;20374;-48
2022/10/29 02:23:58;;;;;;;;;;;;;;;23.46;100.00;99473.53;5039900;28;19931;-48
2022/10/29 02:26:23;;;;;;;;;;;;;;;23.17;100.00;99470.50;5037332;28;20377;-48
2022/10/29 02:28:48;;;;;;;;;;;;;;;23.38;100.00;99462.78;5036223;28;20750;-49
2022/10/29 02:31:14;;;;;;;;;;;;;;;23.45;100.00;99463.16;5036921;28;20035;-49
2022/10/29 02:33:39;;;;;;;;;;;;;;;23.45;100.00;99457.88;5038221;28;19920;-47
2022/10/29 02:36:04;;;;;;;;;;;;;;;23.31;100.00;99457.16;5037704;28;19917;-49
2022/10/29 02:38:30;;;;;;;;;;;;;;;23.01;100.00;99451.63;5036120;28;19924;-50
2022/10/29 02:40:55;;;;;;;;;;;;;;;23.03;100.00;99449.72;5037086;28;19925;-48
2022/10/29 02:43:20;;;;;;;;;;;;;;;23.13;100.00;99443.66;5038564;28;19927;-47
2022/10/29 02:45:45;;;;;;;;;;;;;;;23.05;100.00;99445.19;5037540;28;20348;-49
2022/10/29 02:48:10;;;;;;;;;;;;;;;23.23;100.00;99440.31;5037309;28;20331;-48
2022/10/29 02:50:36;;;;;;;;;;;;;;;23.22;100.00;99446.50;5036075;28;19916;-47
2022/10/29 02:53:01;;;;;;;;;;;;;;;23.21;100.00;99445.69;5039380;28;20281;-47
2022/10/29 02:55:26;;;;;;;;;;;;;;;23.20;100.00;99445.81;5036460;28;19916;-49
2022/10/29 02:57:51;;;;;;;;;;;;;;;23.23;100.00;99456.91;5036226;28;19917;-48
2022/10/29 03:00:17;;;;;;;;;;;;;;;23.24;100.00;99466.50;5037005;28;20011;-50
2022/10/29 03:02:42;;;;;;;;;;;;;;;23.17;100.00;99465.25;5037912;28;20055;-47
2022/10/29 03:05:07;;;;;;;;;;;;;;;23.29;100.00;99464.34;5037297;28;20015;-47
2022/10/29 03:07:36;;;;;;;;;;;;;;;23.05;100.00;99461.78;5036628;28;19931;-50
2022/10/29 03:10:05;;;;;;;;;;;;;;;23.08;100.00;99450.22;5037313;28;19913;-48
2022/10/29 03:12:30;;;;;;;;;;;;;;;22.70;100.00;99461.81;5042813;28;19921;-48
2022/10/29 03:14:56;;;;;;;;;;;;;;;22.95;100.00;99445.88;5042157;28;19951;-48
2022/10/29 03:17:21;;;;;;;;;;;;;;;23.00;100.00;99447.34;5041042;28;19925;-48
2022/10/29 03:19:46;;;;;;;;;;;;;;;22.94;100.00;99441.59;5041332;28;19952;-48
2022/10/29 03:22:11;;;;;;;;;;;;;;;23.04;100.00;99443.53;5040744;28;19968;-49
2022/10/29 03:24:37;;;;;;;;;;;;;;;23.02;100.00;99438.41;5041165;28;19968;-48
2022/10/29 03:27:02;;;;;;;;;;;;;;;22.92;100.00;99440.88;5039817;28;19921;-50
2022/10/29 03:29:27;;;;;;;;;;;;;;;22.94;100.00;99438.97;5040487;28;19921;-49
2022/10/29 03:31:52;;;;;;;;;;;;;;;22.92;100.00;99440.00;5040193;28;19925;-50
2022/10/29 03:34:18;;;;;;;;;;;;;;;22.87;100.00;99432.47;5042231;28;19921;-47
2022/10/29 03:36:43;;;;;;;;;;;;;;;22.74;100.00;99442.25;5041272;28;20353;-48
2022/10/29 03:39:08;;;;;;;;;;;;;;;21.86;100.00;99450.44;5041069;28;20380;-48
2022/10/29 03:41:33;;;;;;;;;;;;;;;21.85;100.00;99453.97;5041765;28;19920;-50
2022/10/29 03:43:58;;;;;;;;;;;;;;;21.84;100.00;99452.31;5040816;28;20039;-49
2022/10/29 03:46:24;;;;;;;;;;;;;;;22.23;100.00;99445.16;5042525;28;20024;-48
2022/10/29 03:48:49;;;;;;;;;;;;;;;22.31;100.00;99450.69;5039713;28;20019;-48
2022/10/29 03:51:14;;;;;;;;;;;;;;;22.41;100.00;99443.81;5040403;28;20039;-49
2022/10/29 03:53:39;;;;;;;;;;;;;;;22.60;100.00;99445.06;5041150;28;20293;-50
2022/10/29 03:56:05;;;;;;;;;;;;;;;22.59;100.00;99441.59;5041477;28;20500;-50
2022/10/29 03:58:30;;;;;;;;;;;;;;;22.16;100.00;99451.78;5039080;28;20356;-51
2022/10/29 04:00:57;;;;;;;;;;;;;;;22.28;100.00;99453.53;5039298;28;20057;-48
2022/10/29 04:03:22;;;;;;;;;;;;;;;21.90;100.00;99462.38;5040585;28;19971;-48
2022/10/29 04:05:47;;;;;;;;;;;;;;;22.07;100.00;99459.34;5039607;28;20316;-49
2022/10/29 04:08:12;;;;;;;;;;;;;;;22.37;100.00;99449.41;5040801;28;20444;-48
2022/10/29 04:10:41;;;;;;;;;;;;;;;22.14;100.00;99447.47;5041667;28;19927;-48
2022/10/29 04:13:07;;;;;;;;;;;;;;;22.04;100.00;99438.59;5038997;28;19920;-47
2022/10/29 04:15:32;;;;;;;;;;;;;;;22.13;100.00;99440.56;5040876;28;19924;-48
2022/10/29 04:17:57;;;;;;;;;;;;;;;22.03;100.00;99438.72;5041764;28;19923;-49
2022/10/29 04:20:22;;;;;;;;;;;;;;;22.07;100.00;99440.16;5039726;28;19921;-48
2022/10/29 04:22:49;;;;;;;;;;;;;;;22.05;100.00;99429.78;5039508;28;20106;-49
2022/10/29 04:25:14;;;;;;;;;;;;;;;21.60;100.00;99442.63;5039570;28;19925;-48
2022/10/29 04:27:40;;;;;;;;;;;;;;;21.92;100.00;99442.13;5039863;28;20444;-50
2022/10/29 04:30:05;;;;;;;;;;;;;;;21.14;100.00;99447.56;5039864;28;20844;-49
2022/10/29 04:32:30;;;;;;;;;;;;;;;20.65;100.00;99464.81;5039036;28;19928;-48
2022/10/29 04:34:56;;;;;;;;;;;;;;;21.06;100.00;99458.59;5038682;28;20486;-50
2022/10/29 04:37:21;;;;;;;;;;;;;;;21.60;100.00;99441.78;5056637;28;20886;-47
2022/10/29 04:39:46;;;;;;;;;;;;;;;20.98;100.00;99450.41;5038310;28;19917;-47
2022/10/29 04:42:11;;;;;;;;;;;;;;;21.10;100.00;99458.28;5041240;28;19928;-47
2022/10/29 04:44:37;;;;;;;;;;;;;;;20.89;100.00;99450.09;5039652;28;19925;-50
2022/10/29 04:47:02;;;;;;;;;;;;;;;20.48;100.00;99456.28;5040091;28;19975;-48
2022/10/29 04:49:27;;;;;;;;;;;;;;;20.70;100.00;99452.25;5038462;28;19921;-50
2022/10/29 04:51:52;;;;;;;;;;;;;;;20.58;100.00;99450.47;5039277;28;19921;-47
2022/10/29 04:54:17;;;;;;;;;;;;;;;20.78;100.00;99436.91;5040927;28;20011;-49
2022/10/29 04:56:43;;;;;;;;;;;;;;;20.98;100.00;99446.03;5040639;28;20032;-49
2022/10/29 04:59:08;;;;;;;;;;;;;;;20.94;100.00;99436.69;5039504;28;20007;-47
2022/10/29 05:01:33;;;;;;;;;;;;;;;20.60;100.00;99438.13;5040639;28;20051;-47
2022/10/29 05:03:58;;;;;;;;;;;;;;;20.32;100.00;99434.69;5037983;28;20016;-48
2022/10/29 05:06:24;;;;;;;;;;;;;;;20.30;100.00;99438.31;5038682;28;19975;-47
2022/10/29 05:08:49;;;;;;;;;;;;;;;20.32;100.00;99434.69;5038668;28;20274;-49
2022/10/29 05:11:14;;;;;;;;;;;;;;;19.90;100.00;99426.03;5041142;28;20351;-48
2022/10/29 05:13:40;;;;;;;;;;;;;;;20.37;100.00;99424.75;5039244;28;20279;-47
2022/10/29 05:16:05;;;;;;;;;;;;;;;20.37;100.00;99427.38;5038535;28;19920;-48
2022/10/29 05:18:31;;;;;;;;;;;;;;;20.14;100.00;99426.25;5038042;28;19924;-47
2022/10/29 05:20:56;;;;;;;;;;;;;;;20.25;100.00;99426.41;5037656;28;19943;-48
2022/10/29 05:23:22;;;;;;;;;;;;;;;19.92;100.00;99421.56;5039359;28;20017;-49
2022/10/29 05:25:48;;;;;;;;;;;;;;;20.05;100.00;99427.69;5038031;28;20402;-47
2022/10/29 05:28:14;;;;;;;;;;;;;;;19.91;100.00;99446.03;5032745;28;19971;-48
2022/10/29 05:30:40;;;;;;;;;;;;;;;19.91;100.00;99443.41;5038637;28;19940;-47
2022/10/29 05:33:09;;;;;;;;;;;;;;;19.93;100.00;99433.69;5037433;28;19978;-49
2022/10/29 05:35:34;;;;;;;;;;;;;;;20.38;100.00;99418.56;5020480;28;19928;-48
2022/10/29 05:38:00;;;;;;;;;;;;;;;20.62;100.00;99405.69;5037505;28;19921;-49
2022/10/29 05:40:25;;;;;;;;;;;;;;;20.38;100.00;99408.09;5040277;28;20313;-50
2022/10/29 05:42:50;;;;;;;;;;;;;;;20.32;100.00;99398.06;5038954;28;19983;-48
2022/10/29 05:45:16;;;;;;;;;;;;;;;20.38;100.00;99395.03;5040227;28;19932;-47
2022/10/29 05:47:41;;;;;;;;;;;;;;;20.36;100.00;99393.44;5040180;28;19931;-47
2022/10/29 05:50:06;;;;;;;;;;;;;;;20.33;100.00;99386.66;5039048;28;20020;-47
2022/10/29 05:52:31;;;;;;;;;;;;;;;20.69;100.00;99382.56;5038527;28;20498;-49
2022/10/29 05:54:57;;;;;;;;;;;;;;;21.19;100.00;99386.09;5039722;28;20394;-49
2022/10/29 05:57:22;;;;;;;;;;;;;;;21.11;100.00;99377.91;5038834;28;20382;-48
2022/10/29 05:59:48;;;;;;;;;;;;;;;21.10;100.00;99378.88;5037857;28;19921;-50
2022/10/29 06:02:13;;;;;;;;;;;;;;;21.42;100.00;99378.44;5037311;28;20008;-49
2022/10/29 06:04:38;;;;;;;;;;;;;;;21.21;100.00;99371.09;5040310;28;20011;-47
2022/10/29 06:07:03;;;;;;;;;;;;;;;21.83;100.00;99369.38;5037972;28;19932;-48
2022/10/29 06:09:28;;;;;;;;;;;;;;;22.00;100.00;99368.13;5034323;28;19966;-48
2022/10/29 06:11:54;;;;;;;;;;;;;;;21.16;100.00;99362.72;5038527;28;19921;-46
2022/10/29 06:14:19;;;;;;;;;;;;;;;20.55;100.00;99374.75;5037097;28;19931;-46
2022/10/29 06:16:44;;;;;;;;;;;;;;;20.70;100.00;99384.22;5039198;28;20007;-49
2022/10/29 06:19:09;;;;;;;;;;;;;;;21.08;100.00;99391.22;5038593;28;19964;-47
2022/10/29 06:21:35;;;;;;;;;;;;;;;20.84;100.00;99394.56;5038566;28;19952;-49
2022/10/29 06:24:00;;;;;;;;;;;;;;;21.16;100.00;99388.91;5036376;28;19925;-49
2022/10/29 06:26:25;;;;;;;;;;;;;;;20.85;100.00;99396.25;5037515;28;19917;-49
2022/10/29 06:28:50;;;;;;;;;;;;;;;21.42;100.00;99392.38;5036833;28;19927;-48
2022/10/29 06:31:16;;;;;;;;;;;;;;;21.43;100.00;99390.56;5038592;28;19920;-47
2022/10/29 06:33:41;;;;;;;;;;;;;;;20.71;100.00;99399.00;5038188;28;19917;-48
2022/10/29 06:36:06;;;;;;;;;;;;;;;20.52;100.00;99406.34;5038011;28;19921;-47
2022/10/29 06:38:31;;;;;;;;;;;;;;;21.18;100.00;99397.50;5038585;28;19921;-47
2022/10/29 06:40:57;;;;;;;;;;;;;;;20.40;100.00;99411.47;5038824;28;19927;-47
2022/10/29 06:43:22;;;;;;;;;;;;;;;20.36;100.00;99406.53;5038547;28;19943;-47
2022/10/29 06:45:48;;;;;;;;;;;;;;;20.54;100.00;99402.69;5036588;28;20350;-49
2022/10/29 06:48:14;;;;;;;;;;;;;;;21.02;100.00;99396.88;5038605;28;19920;-48
2022/10/29 06:50:39;;;;;;;;;;;;;;;20.40;100.00;99389.69;5039128;28;20464;-47
2022/10/29 06:53:05;;;;;;;;;;;;;;;20.86;100.00;99390.06;5039591;28;19912;-47
2022/10/29 06:55:31;;;;;;;;;;;;;;;21.28;100.00;99388.06;5038713;28;19924;-48
2022/10/29 06:57:57;;;;;;;;;;;;;;;21.22;100.00;99378.00;5038789;28;19924;-48
2022/10/29 07:00:22;;;;;;;;;;;;;;;21.26;100.00;99383.88;5038297;28;20459;-47
2022/10/29 07:02:47;;;;;;;;;;;;;;;20.68;100.00;99386.91;5039575;28;19917;-46
2022/10/29 07:05:12;;;;;;;;;;;;;;;20.66;100.00;99387.97;5038467;28;19967;-47
2022/10/29 07:07:37;;;;;;;;;;;;;;;20.69;100.00;99379.94;5039066;28;19995;-47
2022/10/29 07:10:03;;;;;;;;;;;;;;;20.73;100.00;99377.94;5038344;28;20019;-47
2022/10/29 07:12:28;;;;;;;;;;;;;;;20.86;100.00;99379.59;5038800;28;19917;-50
2022/10/29 07:14:53;;;;;;;;;;;;;;;21.01;100.00;99376.91;5038757;28;19917;-48
2022/10/29 07:17:18;;;;;;;;;;;;;;;21.05;100.00;99375.72;5038394;28;19973;-48
2022/10/29 07:19:44;;;;;;;;;;;;;;;20.62;100.00;99389.16;5037623;28;20002;-49
2022/10/29 07:22:09;;;;;;;;;;;;;;;20.93;100.00;99389.66;5039184;28;19956;-47
2022/10/29 07:24:34;;;;;;;;;;;;;;;20.77;100.00;99400.34;5038126;28;19964;-47
2022/10/29 07:27:00;;;;;;;;;;;;;;;20.44;100.00;99405.09;5037467;28;19960;-47
2022/10/29 07:29:25;;;;;;;;;;;;;;;20.99;100.00;99394.50;5038581;28;19960;-48
2022/10/29 07:31:51;;;;;;;;;;;;;;;20.99;100.00;99386.63;5038523;28;20048;-47
2022/10/29 07:34:16;;;;;;;;;;;;;;;21.11;100.00;99385.78;5039719;28;19966;-48
2022/10/29 07:36:41;;;;;;;;;;;;;;;20.51;100.00;99383.75;5038233;28;19948;-46
2022/10/29 07:39:06;;;;;;;;;;;;;;;20.77;100.00;99392.50;5038359;28;19994;-46
2022/10/29 07:41:31;;;;;;;;;;;;;;;21.16;100.00;99391.53;5039297;28;19967;-48
2022/10/29 07:43:57;;;;;;;;;;;;;;;20.96;100.00;99386.81;5037107;28;19925;-47
2022/10/29 07:46:22;;;;;;;;;;;;;;;21.49;100.00;99379.66;5037967;28;19966;-47
2022/10/29 07:48:47;;;;;;;;;;;;;;;21.19;100.00;99373.00;5038920;28;19919;-48
2022/10/29 07:51:12;;;;;;;;;;;;;;;20.99;100.00;99387.47;5038028;28;20923;-47
2022/10/29 07:53:38;;;;;;;;;;;;;;;21.52;100.00;99387.28;5038814;28;20563;-48
2022/10/29 07:56:03;;;;;;;;;;;;;;;21.23;100.00;99386.69;5039972;28;20763;-49
2022/10/29 07:58:28;;;;;;;;;;;;;;;21.58;100.00;99379.00;5042598;28;19920;-50
2022/10/29 08:00:53;;;;;;;;;;;;;;;21.13;100.00;99385.69;5042191;28;19916;-48
2022/10/29 08:03:19;;;;;;;;;;;;;;;20.36;100.00;99403.91;5041968;28;19920;-50
2022/10/29 08:05:46;;;;;;;;;;;;;;;20.84;100.00;99412.91;5042112;28;20374;-48
2022/10/29 08:08:11;;;;;;;;;;;;;;;20.65;100.00;99409.88;5042410;28;19927;-49
2022/10/29 08:10:36;;;;;;;;;;;;;;;20.64;100.00;99402.94;5042620;28;19917;-48
2022/10/29 08:13:02;;;;;;;;;;;;;;;20.97;100.00;99399.00;5042376;28;20282;-50
2022/10/29 08:15:28;;;;;;;;;;;;;;;21.31;100.00;99393.06;5041934;28;19916;-47
2022/10/29 08:17:54;;;;;;;;;;;;;;;21.11;100.00;99380.53;5041831;28;19916;-47
2022/10/29 08:20:19;;;;;;;;;;;;;;;21.98;100.00;99376.09;5041884;28;19916;-50
2022/10/29 08:22:45;;;;;;;;;;;;;;;20.84;100.00;99380.66;5041974;28;19920;-47
2022/10/29 08:25:10;;;;;;;;;;;;;;;21.22;100.00;99382.41;5040883;28;20531;-50
2022/10/29 08:27:35;;;;;;;;;;;;;;;21.41;100.00;99392.47;5040878;28;20599;-49
2022/10/29 08:30:00;;;;;;;;;;;;;;;21.47;100.00;99386.78;5041184;28;19963;-48
2022/10/29 08:32:26;;;;;;;;;;;;;;;21.38;100.00;99376.94;5039876;28;20451;-47
2022/10/29 08:34:51;;;;;;;;;;;;;;;22.14;100.00;99375.81;5041855;28;19971;-50
2022/10/29 08:37:16;;;;;;;;;;;;;;;21.86;100.00;99375.22;5041928;28;20397;-50
2022/10/29 08:39:41;;;;;;;;;;;;;;;21.84;100.00;99386.78;5041523;28;20455;-47
2022/10/29 08:42:17;;;;;;;;;;;;;;;21.80;100.00;99382.69;5041054;28;20351;-48
2022/10/29 08:45:08;;;;;;;;;;;;;;;22.46;100.00;99372.59;5041799;28;20505;-48
2022/10/29 08:47:43;;;;;;;;;;;;;;;22.59;100.00;99364.66;5039370;28;19918;-49
2022/10/29 08:50:16;;;;;;;;;;;;;;;22.96;100.00;99358.22;5040614;28;19928;-50
2022/10/29 08:52:41;;;;;;;;;;;;;;;22.41;100.00;99382.63;5039926;28;19921;-48
2022/10/29 08:55:14;;;;;;;;;;;;;;;22.43;100.00;99371.06;5040413;28;19990;-50
2022/10/29 08:57:44;;;;;;;;;;;;;;;22.45;100.00;99374.41;5041125;28;20308;-47
2022/10/29 09:00:12;;;;;;;;;;;;;;;22.50;100.00;99379.31;5039715;28;19921;-47
2022/10/29 09:02:39;;;;;;;;;;;;;;;22.80;100.00;99373.50;5041208;28;19916;-49
2022/10/29 09:05:04;;;;;;;;;;;;;;;22.26;100.00;99371.47;5041711;28;19925;-47
2022/10/29 09:07:48;;;;;;;;;;;;;;;22.39;100.00;99371.41;5039616;28;20421;-50
2022/10/29 09:10:13;;;;;;;;;;;;;;;23.09;100.00;99366.03;5038316;28;20000;-50
2022/10/29 09:13:00;;;;;;;;;;;;;;;23.14;100.00;99357.78;5041435;28;20369;-48
2022/10/29 09:15:28;;;;;;;;;;;;;;;23.32;100.00;99358.13;5028700;28;19966;-47
2022/10/29 09:17:56;;;;;;;;;;;;;;;23.57;100.00;99352.59;5041493;28;20027;-48
2022/10/29 09:20:27;;;;;;;;;;;;;;;23.50;100.00;99355.84;5039925;28;19917;-48
2022/10/29 09:22:59;;;;;;;;;;;;;;;23.76;100.00;99351.13;5038681;28;19942;-47
2022/10/29 09:25:24;;;;;;;;;;;;;;;24.18;100.00;99351.22;5027607;28;19952;-49
2022/10/29 09:27:50;;;;;;;;;;;;;;;24.18;100.00;99352.03;5039286;28;20044;-49
2022/10/29 09:30:18;;;;;;;;;;;;;;;24.33;100.00;99344.66;5040713;28;20650;-48
2022/10/29 09:32:46;;;;;;;;;;;;;;;24.67;100.00;99346.28;5040363;28;19943;-48
2022/10/29 09:35:15;;;;;;;;;;;;;;;25.31;100.00;99339.88;5039420;28;20444;-47
2022/10/29 09:37:43;;;;;;;;;;;;;;;24.57;100.00;99341.78;5035959;28;19921;-50
2022/10/29 09:40:28;;;;;;;;;;;;;;;25.36;100.00;99342.94;5036232;28;19921;-47
2022/10/29 09:42:53;;;;;;;;;;;;;;;25.83;100.00;99330.81;5039091;28;19939;-48
2022/10/29 09:45:20;;;;;;;;;;;;;;;26.11;100.00;99328.31;5034972;28;20386;-48
2022/10/29 09:47:45;;;;;;;;;;;;;;;25.79;100.00;99334.69;5037530;28;19921;-47
2022/10/29 09:50:32;;;;;;;;;;;;;;;25.99;100.00;99325.00;5035972;28;19924;-47
2022/10/29 09:52:57;;;;;;;;;;;;;;;25.97;100.00;99323.47;5038150;28;19959;-48
2022/10/29 09:55:23;;;;;;;;;;;;;;;26.06;100.00;99314.72;5037330;28;19944;-47
2022/10/29 09:57:48;;;;;;;;;;;;;;;25.80;100.00;99320.53;5039694;28;20468;-49
2022/10/29 10:00:24;;;;;;;;;;;;;;;26.03;100.00;99317.66;5038195;28;20065;-48
2022/10/29 10:02:53;;;;;;;;;;;;;;;26.46;100.00;99303.94;5035042;28;20470;-50
2022/10/29 10:05:22;;;;;;;;;;;;;;;26.16;100.00;99314.69;5035484;28;19929;-48
2022/10/29 10:08:17;;;;;;;;;;;;;;;26.29;100.00;99307.31;5036905;28;19927;-51
2022/10/29 10:10:48;;;;;;;;;;;;;;;26.52;100.00;99305.16;5031489;28;20456;-51
2022/10/29 10:13:14;;;;;;;;;;;;;;;26.15;100.00;99311.22;5037501;28;19917;-48
2022/10/29 10:15:39;;;;;;;;;;;;;;;25.53;100.00;99312.47;5035228;28;19921;-50
2022/10/29 10:18:18;;;;;;;;;;;;;;;25.80;100.00;99304.69;5037232;28;19977;-51
2022/10/29 10:20:44;;;;;;;;;;;;;;;26.12;100.00;99298.31;5034506;28;19920;-49
2022/10/29 10:23:24;;;;;;;;;;;;;;;26.18;100.00;99297.75;5037263;28;19921;-49
2022/10/29 10:25:51;;;;;;;;;;;;;;;26.25;100.00;99292.72;5031747;28;19935;-48
2022/10/29 10:28:17;;;;;;;;;;;;;;;26.46;100.00;99295.19;5031819;28;20020;-50
2022/10/29 10:30:43;;;;;;;;;;;;;;;26.27;100.00;99293.41;5037323;28;20096;-50
2022/10/29 10:33:35;;;;;;;;;;;;;;;25.91;100.00;99297.63;5039255;28;20058;-49
2022/10/29 10:36:01;;;;;;;;;;;;;;;26.20;100.00;99297.59;5032496;28;19924;-50
2022/10/29 10:38:26;;;;;;;;;;;;;;;26.96;100.00;99286.97;5037579;28;19917;-48
2022/10/29 10:41:00;;;;;;;;;;;;;;;27.61;100.00;99278.06;5039398;28;20375;-48
2022/10/29 10:43:25;;;;;;;;;;;;;;;26.40;100.00;99282.56;5042033;28;19920;-50
2022/10/29 10:45:55;;;;;;;;;;;;;;;26.68;100.00;99267.59;5038116;28;19970;-50
2022/10/29 10:48:21;;;;;;;;;;;;;;;26.76;100.00;99266.88;5047356;28;19947;-49
2022/10/29 10:50:46;;;;;;;;;;;;;;;27.45;100.00;99261.06;5036786;28;19964;-52
2022/10/29 10:53:15;;;;;;;;;;;;;;;26.87;100.00;99266.69;5034839;28;20429;-52
2022/10/29 10:55:44;;;;;;;;;;;;;;;27.21;100.00;99263.44;5033540;28;19982;-49
2022/10/29 10:58:13;;;;;;;;;;;;;;;26.85;100.00;99279.22;5037734;28;19920;-48
2022/10/29 11:00:39;;;;;;;;;;;;;;;27.00;100.00;99276.91;5037239;28;19925;-49
2022/10/29 11:03:04;;;;;;;;;;;;;;;26.80;100.00;99265.59;5036013;28;19917;-47
2022/10/29 11:05:30;;;;;;;;;;;;;;;27.25;100.00;99264.81;5036258;28;19928;-48
2022/10/29 11:08:07;;;;;;;;;;;;;;;26.85;100.00;99264.19;5034711;28;19917;-48
2022/10/29 11:10:41;;;;;;;;;;;;;;;27.06;100.00;99271.88;5037116;28;19921;-48
2022/10/29 11:13:09;;;;;;;;;;;;;;;27.12;100.00;99275.75;5038825;28;19967;-49
2022/10/29 11:15:37;;;;;;;;;;;;;;;26.75;100.00;99275.78;5036733;28;20427;-50
2022/10/29 11:18:03;;;;;;;;;;;;;;;26.82;100.00;99275.06;5036007;28;19975;-48
2022/10/29 11:20:34;;;;;;;;;;;;;;;27.11;100.00;99268.78;5037981;28;19932;-51
2022/10/29 11:22:59;;;;;;;;;;;;;;;26.90;100.00;99266.41;5037669;28;20008;-50
2022/10/29 11:25:41;;;;;;;;;;;;;;;26.29;100.00;99260.59;5037967;28;20023;-49
2022/10/29 11:28:26;;;;;;;;;;;;;;;26.46;100.00;99264.34;5036232;28;19921;-51
2022/10/29 11:30:57;;;;;;;;;;;;;;;27.61;100.00;99257.72;5029608;28;20019;-49
2022/10/29 11:33:31;;;;;;;;;;;;;;;27.69;100.00;99252.53;5043012;28;20689;-51
2022/10/29 11:35:57;;;;;;;;;;;;;;;27.58;100.00;99249.28;5038964;28;21504;-48
2022/10/29 11:38:33;;;;;;;;;;;;;;;27.41;100.00;99257.03;5040075;28;19917;-51
2022/10/29 11:41:03;;;;;;;;;;;;;;;27.52;100.00;99248.88;5038165;28;19927;-51
2022/10/29 11:43:29;;;;;;;;;;;;;;;26.81;100.00;99256.72;5041768;28;20541;-52
2022/10/29 11:46:05;;;;;;;;;;;;;;;27.23;100.00;99242.97;5038295;28;19921;-49
2022/10/29 11:48:30;;;;;;;;;;;;;;;27.37;100.00;99233.69;5038786;28;19917;-48
2022/10/29 11:51:08;;;;;;;;;;;;;;;27.37;100.00;99242.47;5038712;28;20374;-49
2022/10/29 11:53:33;;;;;;;;;;;;;;;28.15;99.82;99236.50;5041671;28;19916;-49
2022/10/29 11:56:07;;;;;;;;;;;;;;;28.63;98.99;99229.81;5039467;28;19913;-51
2022/10/29 11:58:37;;;;;;;;;;;;;;;28.44;99.04;99227.38;5040471;28;20284;-50
2022/10/29 12:01:17;;;;;;;;;;;;;;;28.31;98.78;99228.66;5041430;28;20700;-49
2022/10/29 12:03:49;;;;;;;;;;;;;;;28.27;98.31;99223.81;5042112;28;19925;-49
2022/10/29 12:06:34;;;;;;;;;;;;;;;28.23;97.22;99225.94;5041032;28;20392;-50
2022/10/29 12:09:17;;;;;;;;;;;;;;;28.38;97.64;99222.72;5038442;28;19959;-48
2022/10/29 12:11:44;;;;;;;;;;;;;;;28.57;96.17;99219.84;5040871;28;19920;-48
2022/10/29 12:14:35;;;;;;;;;;;;;;;28.54;97.04;99223.66;5038103;28;19974;-48
2022/10/29 12:17:01;;;;;;;;;;;;;;;28.64;96.98;99220.03;5039811;28;19916;-49
2022/10/29 12:19:30;;;;;;;;;;;;;;;28.46;96.48;99212.16;5039464;28;19924;-48
2022/10/29 12:22:22;;;;;;;;;;;;;;;28.66;94.85;99204.81;5039232;28;19916;-49
2022/10/29 12:24:56;;;;;;;;;;;;;;;28.69;95.87;99213.28;5038803;28;19929;-48
2022/10/29 12:27:21;;;;;;;;;;;;;;;28.99;96.25;99217.19;5039956;28;19917;-49
2022/10/29 12:30:06;;;;;;;;;;;;;;;28.83;95.65;99222.44;5039136;28;19927;-49
2022/10/29 12:32:40;;;;;;;;;;;;;;;27.94;96.56;99224.47;5039424;28;19917;-48
2022/10/29 12:35:15;;;;;;;;;;;;;;;28.01;96.99;99218.50;5041199;28;19917;-50
2022/10/29 12:37:40;;;;;;;;;;;;;;;28.54;96.43;99214.88;5041640;28;19916;-51
2022/10/29 12:40:26;;;;;;;;;;;;;;;28.38;97.77;99215.59;5038236;28;19970;-52
2022/10/29 12:42:51;;;;;;;;;;;;;;;28.89;95.77;99213.00;5036244;28;19932;-50